createdAt,value
2022-10-07T00:01:11.178Z,6.10
2022-10-07T00:03:40.163Z,6.60
2022-10-07T00:06:15.738Z,6.20
2022-10-07T00:08:46.647Z,6.20
2022-10-07T00:11:27.082Z,7.10
2022-10-07T00:13:57.853Z,6.10
2022-10-07T00:16:44.144Z,6.10
2022-10-07T00:19:13.847Z,6.90
2022-10-07T00:21:42.545Z,6.90
2022-10-07T00:24:11.253Z,7.10
2022-10-07T00:26:41.721Z,7.50
2022-10-07T00:29:10.072Z,8.40
2022-10-07T00:31:38.123Z,8.80
2022-10-07T00:34:06.087Z,8.30
2022-10-07T00:36:37.560Z,8.00
2022-10-07T00:39:10.254Z,7.00
2022-10-07T00:41:41.911Z,8.30
2022-10-07T00:44:31.812Z,7.90
2022-10-07T00:47:04.071Z,7.80
2022-10-07T00:49:41.162Z,8.50
2022-10-07T00:52:09.226Z,8.70
2022-10-07T00:54:38.569Z,8.80
2022-10-07T00:57:07.212Z,7.60
2022-10-07T00:59:38.194Z,7.60
2022-10-07T01:02:07.868Z,7.00
2022-10-07T01:04:38.877Z,7.80
2022-10-07T01:07:09.619Z,6.00
2022-10-07T01:09:37.776Z,8.00
2022-10-07T01:12:19.782Z,8.20
2022-10-07T01:15:09.953Z,9.40
2022-10-07T01:17:49.734Z,8.60
2022-10-07T01:20:41.149Z,7.30
2022-10-07T01:23:42.389Z,7.80
2022-10-07T01:26:34.303Z,7.50
2022-10-07T01:29:08.526Z,8.60
2022-10-07T01:31:42.734Z,7.40
2022-10-07T01:34:14.275Z,8.10
2022-10-07T01:36:51.038Z,8.20
2022-10-07T01:39:24.750Z,7.50
2022-10-07T01:41:53.615Z,7.80
2022-10-07T01:44:21.936Z,8.40
2022-10-07T01:46:51.048Z,8.20
2022-10-07T01:49:19.183Z,7.70
2022-10-07T01:52:01.414Z,7.80
2022-10-07T01:54:32.774Z,7.60
2022-10-07T01:57:26.620Z,8.10
2022-10-07T02:00:05.677Z,7.90
2022-10-07T02:03:07.048Z,7.30
2022-10-07T02:05:54.900Z,7.00
2022-10-07T02:08:33.763Z,6.80
2022-10-07T02:11:08.186Z,7.00
2022-10-07T02:13:58.597Z,6.60
2022-10-07T02:16:40.170Z,7.70
2022-10-07T02:19:28.576Z,6.90
2022-10-07T02:21:58.469Z,7.00
2022-10-07T02:24:29.699Z,8.20
2022-10-07T02:27:01.924Z,7.20
2022-10-07T02:29:33.096Z,7.00
2022-10-07T02:32:06.093Z,6.80
2022-10-07T02:34:36.321Z,8.10
2022-10-07T02:37:15.286Z,8.40
2022-10-07T02:39:46.202Z,8.00
2022-10-07T02:42:25.411Z,7.90
2022-10-07T02:45:23.279Z,6.60
2022-10-07T02:48:27.651Z,7.60
2022-10-07T02:51:00.613Z,7.20
2022-10-07T02:53:32.304Z,6.00
2022-10-07T02:56:02.949Z,7.40
2022-10-07T02:58:31.438Z,7.10
2022-10-07T03:01:02.486Z,7.00
2022-10-07T03:03:30.728Z,7.70
2022-10-07T03:06:01.989Z,7.80
2022-10-07T03:08:30.866Z,7.80
2022-10-07T03:10:59.400Z,7.50
2022-10-07T03:13:27.524Z,7.00
2022-10-07T03:16:07.920Z,7.70
2022-10-07T03:18:36.676Z,7.40
2022-10-07T03:21:25.741Z,7.80
2022-10-07T03:23:55.744Z,7.50
2022-10-07T03:26:26.776Z,7.40
2022-10-07T03:28:55.332Z,7.10
2022-10-07T03:31:23.733Z,7.80
2022-10-07T03:33:52.728Z,7.30
2022-10-07T03:36:20.995Z,7.40
2022-10-07T03:38:50.152Z,7.40
2022-10-07T03:41:19.265Z,7.30
2022-10-07T03:43:48.631Z,7.70
2022-10-07T03:46:19.785Z,7.40
2022-10-07T03:48:48.063Z,7.10
2022-10-07T03:51:16.405Z,6.80
2022-10-07T03:53:44.424Z,6.40
2022-10-07T03:56:12.561Z,7.30
2022-10-07T03:58:42.608Z,6.80
2022-10-07T04:01:15.162Z,7.20
2022-10-07T04:03:55.986Z,7.50
2022-10-07T04:06:24.751Z,6.40
2022-10-07T04:08:54.219Z,7.00
2022-10-07T04:11:24.381Z,7.40
2022-10-07T04:13:56.115Z,6.20
2022-10-07T04:16:26.261Z,6.20
2022-10-07T04:18:56.330Z,6.20
2022-10-07T04:21:24.490Z,6.60
2022-10-07T04:23:52.874Z,6.80
2022-10-07T04:26:23.660Z,6.40
2022-10-07T04:28:52.479Z,6.80
2022-10-07T04:31:22.662Z,6.90
2022-10-07T04:33:58.463Z,6.50
2022-10-07T04:36:31.036Z,6.80
2022-10-07T04:39:05.446Z,5.90
2022-10-07T04:41:37.343Z,6.60
2022-10-07T04:44:09.044Z,6.00
2022-10-07T04:46:41.088Z,6.60
2022-10-07T04:49:12.516Z,6.90
2022-10-07T04:51:41.011Z,6.30
2022-10-07T04:54:09.431Z,6.20
2022-10-07T04:56:44.348Z,6.10
2022-10-07T04:59:17.008Z,6.20
2022-10-07T05:01:45.233Z,6.30
2022-10-07T05:04:15.069Z,5.50
2022-10-07T05:06:43.873Z,6.20
2022-10-07T05:09:12.513Z,6.60
2022-10-07T05:11:43.923Z,6.40
2022-10-07T05:14:21.911Z,6.70
2022-10-07T05:16:52.267Z,6.30
2022-10-07T05:19:22.276Z,6.80
2022-10-07T05:21:50.823Z,7.10
2022-10-07T05:24:21.112Z,7.20
2022-10-07T05:26:52.457Z,7.00
2022-10-07T05:29:21.562Z,7.50
2022-10-07T05:31:52.647Z,7.30
2022-10-07T05:34:23.731Z,8.40
2022-10-07T05:36:53.736Z,8.10
2022-10-07T05:39:23.256Z,8.40
2022-10-07T05:41:54.178Z,7.70
2022-10-07T05:44:27.047Z,7.70
2022-10-07T05:46:57.635Z,7.70
2022-10-07T05:49:26.047Z,8.00
2022-10-07T05:51:54.515Z,8.20
2022-10-07T05:54:24.985Z,8.20
2022-10-07T05:56:54.848Z,7.40
2022-10-07T05:59:23.807Z,6.90
2022-10-07T06:01:57.812Z,7.80
2022-10-07T06:04:27.635Z,7.40
2022-10-07T06:06:55.952Z,8.00
2022-10-07T06:09:42.502Z,7.20
2022-10-07T06:12:35.300Z,7.60
2022-10-07T06:15:09.687Z,7.60
2022-10-07T06:17:44.318Z,7.90
2022-10-07T06:20:15.252Z,8.00
2022-10-07T06:22:44.355Z,8.30
2022-10-07T06:25:13.825Z,7.80
2022-10-07T06:27:42.981Z,8.20
2022-10-07T06:30:13.326Z,7.80
2022-10-07T06:32:41.437Z,7.50
2022-10-07T06:35:09.893Z,7.00
2022-10-07T06:37:39.478Z,7.80
2022-10-07T06:40:08.819Z,8.20
2022-10-07T06:43:13.145Z,6.80
2022-10-07T06:45:46.170Z,7.40
2022-10-07T06:48:14.777Z,7.30
2022-10-07T06:50:54.185Z,7.80
2022-10-07T06:53:24.905Z,8.30
2022-10-07T06:55:57.819Z,7.80
2022-10-07T06:58:27.866Z,7.60
2022-10-07T07:00:58.175Z,7.60
2022-10-07T07:03:27.134Z,8.00
2022-10-07T07:05:57.337Z,7.50
2022-10-07T07:08:34.667Z,7.10
2022-10-07T07:11:27.002Z,8.10
2022-10-07T07:13:56.614Z,7.50
2022-10-07T07:16:25.128Z,7.60
2022-10-07T07:19:04.368Z,7.30
2022-10-07T07:21:34.705Z,8.40
2022-10-07T07:24:03.131Z,8.30
2022-10-07T07:26:35.397Z,7.60
2022-10-07T07:29:06.128Z,7.40
2022-10-07T07:31:41.220Z,6.70
2022-10-07T07:34:12.726Z,7.30
2022-10-07T07:36:46.097Z,7.10
2022-10-07T07:39:17.572Z,7.30
2022-10-07T07:41:50.783Z,6.80
2022-10-07T07:44:20.862Z,8.10
2022-10-07T07:46:52.305Z,7.40
2022-10-07T07:49:23.188Z,7.10
2022-10-07T07:51:51.807Z,6.70
2022-10-07T07:54:30.026Z,7.00
2022-10-07T07:56:58.498Z,7.50
2022-10-07T07:59:28.408Z,6.80
2022-10-07T08:01:58.271Z,6.90
2022-10-07T08:04:27.072Z,6.30
2022-10-07T08:06:55.761Z,6.50
2022-10-07T08:09:24.600Z,6.80
2022-10-07T08:11:54.080Z,6.50
2022-10-07T08:14:23.672Z,6.20
2022-10-07T08:16:55.698Z,4.90
2022-10-07T08:19:24.193Z,3.80
2022-10-07T08:21:53.519Z,3.20
2022-10-07T08:24:28.034Z,3.40
2022-10-07T08:26:58.099Z,3.50
2022-10-07T08:29:26.367Z,3.20
2022-10-07T08:31:54.512Z,3.60
2022-10-07T08:34:23.444Z,3.50
2022-10-07T08:36:52.424Z,2.70
2022-10-07T08:39:20.660Z,2.60
2022-10-07T08:42:00.749Z,3.70
2022-10-07T08:44:37.147Z,3.80
2022-10-07T08:47:24.471Z,4.00
2022-10-07T08:50:07.941Z,3.50
2022-10-07T08:52:42.147Z,4.10
2022-10-07T08:55:16.916Z,4.40
2022-10-07T08:58:06.846Z,4.40
2022-10-07T09:00:44.872Z,4.30
2022-10-07T09:03:40.262Z,4.40
2022-10-07T09:06:18.120Z,4.30
2022-10-07T09:08:52.359Z,4.10
2022-10-07T09:11:25.815Z,4.40
2022-10-07T09:14:02.997Z,4.60
2022-10-07T09:16:43.442Z,4.30
2022-10-07T09:19:30.692Z,4.50
2022-10-07T09:22:12.067Z,4.50
2022-10-07T09:24:40.410Z,4.00
2022-10-07T09:27:14.589Z,4.20
2022-10-07T09:29:44.355Z,3.50
2022-10-07T09:32:15.119Z,4.10
2022-10-07T09:34:43.420Z,4.60
2022-10-07T09:37:17.486Z,4.20
2022-10-07T09:39:48.360Z,4.10
2022-10-07T09:42:20.692Z,4.00
2022-10-07T09:44:54.471Z,3.60
2022-10-07T09:47:25.728Z,3.80
2022-10-07T09:49:59.528Z,4.20
2022-10-07T09:52:31.854Z,3.90
2022-10-07T09:55:38.887Z,3.90
2022-10-07T09:58:25.144Z,4.00
2022-10-07T10:00:56.670Z,4.30
2022-10-07T10:03:33.618Z,3.70
2022-10-07T10:06:04.771Z,3.60
2022-10-07T10:08:43.192Z,4.00
2022-10-07T10:11:20.692Z,4.00
2022-10-07T10:13:50.823Z,4.10
2022-10-07T10:16:24.823Z,3.80
2022-10-07T10:19:04.911Z,4.60
2022-10-07T10:21:40.822Z,3.80
2022-10-07T10:24:15.988Z,3.80
2022-10-07T10:26:56.618Z,4.10
2022-10-07T10:29:53.648Z,3.90
2022-10-07T10:32:31.175Z,3.70
2022-10-07T10:35:14.599Z,3.80
2022-10-07T10:37:45.607Z,3.60
2022-10-07T10:40:41.354Z,3.70
2022-10-07T10:43:55.484Z,3.60
2022-10-07T10:46:41.711Z,3.10
2022-10-07T10:49:26.138Z,3.50
2022-10-07T10:52:03.277Z,2.80
2022-10-07T10:54:56.313Z,3.20
2022-10-07T10:57:35.345Z,3.40
2022-10-07T11:00:17.145Z,3.10
2022-10-07T11:03:16.843Z,3.30
2022-10-07T11:05:49.077Z,2.70
2022-10-07T11:08:37.603Z,3.10
2022-10-07T11:11:12.706Z,3.10
2022-10-07T11:14:05.657Z,3.30
2022-10-07T11:16:48.391Z,3.50
2022-10-07T11:19:22.270Z,3.20
2022-10-07T11:21:56.756Z,3.30
2022-10-07T11:24:41.971Z,3.40
2022-10-07T11:27:25.134Z,3.00
2022-10-07T11:30:06.692Z,3.60
2022-10-07T11:32:45.675Z,3.10
2022-10-07T11:35:23.527Z,3.20
2022-10-07T11:38:04.216Z,3.10
2022-10-07T11:40:35.364Z,3.30
2022-10-07T11:43:14.746Z,3.40
2022-10-07T11:45:52.559Z,2.90
2022-10-07T11:48:53.165Z,3.10
2022-10-07T11:52:06.148Z,3.00
2022-10-07T11:54:59.190Z,3.90
2022-10-07T11:57:32.255Z,3.30
2022-10-07T12:00:05.056Z,3.30
2022-10-07T12:02:45.388Z,3.10
2022-10-07T12:05:35.783Z,3.00
2022-10-07T12:08:19.149Z,3.50
2022-10-07T12:10:47.554Z,3.40
2022-10-07T12:13:15.842Z,3.60
2022-10-07T12:15:44.992Z,3.00
2022-10-07T12:18:26.314Z,3.30
2022-10-07T12:21:03.993Z,3.30
2022-10-07T12:23:40.512Z,3.50
2022-10-07T12:26:44.605Z,3.10
2022-10-07T12:29:24.885Z,3.00
2022-10-07T12:31:53.334Z,3.20
2022-10-07T12:34:23.222Z,3.00
2022-10-07T12:36:51.654Z,3.40
2022-10-07T12:39:36.051Z,3.20
2022-10-07T12:42:08.354Z,3.20
2022-10-07T12:44:44.095Z,3.70
2022-10-07T12:47:31.097Z,3.40
2022-10-07T12:50:04.930Z,3.70
2022-10-07T12:52:53.168Z,3.30
2022-10-07T12:55:29.927Z,3.70
2022-10-07T12:58:21.261Z,3.60
2022-10-07T13:01:15.964Z,4.00
2022-10-07T13:04:09.215Z,3.60
2022-10-07T13:06:59.869Z,3.90
2022-10-07T13:09:40.266Z,3.50
2022-10-07T13:12:14.801Z,3.50
2022-10-07T13:14:50.656Z,3.90
2022-10-07T13:17:19.077Z,3.60
2022-10-07T13:20:03.218Z,3.50
2022-10-07T13:22:32.485Z,4.10
2022-10-07T13:25:03.455Z,4.20
2022-10-07T13:27:34.701Z,3.40
2022-10-07T13:30:06.700Z,3.80
2022-10-07T13:32:36.375Z,4.10
2022-10-07T13:35:30.517Z,3.80
2022-10-07T13:37:59.420Z,3.90
2022-10-07T13:40:35.568Z,4.20
2022-10-07T13:43:07.395Z,4.00
2022-10-07T13:45:46.053Z,3.70
2022-10-07T13:48:28.276Z,3.40
2022-10-07T13:50:59.656Z,4.10
2022-10-07T13:53:32.176Z,4.40
2022-10-07T13:56:07.764Z,4.30
2022-10-07T13:58:37.907Z,4.20
2022-10-07T14:01:07.031Z,4.20
2022-10-07T14:03:35.708Z,3.90
2022-10-07T14:06:04.361Z,4.10
2022-10-07T14:08:33.455Z,3.90
2022-10-07T14:11:22.472Z,3.70
2022-10-07T14:13:50.614Z,3.50
2022-10-07T14:16:25.051Z,3.90
2022-10-07T14:18:54.993Z,4.30
2022-10-07T14:21:24.770Z,4.50
2022-10-07T14:23:54.047Z,3.90
2022-10-07T14:26:25.144Z,3.50
2022-10-07T14:28:53.610Z,4.00
2022-10-07T14:31:41.116Z,4.20
2022-10-07T14:34:37.078Z,3.90
2022-10-07T14:37:10.310Z,3.70
2022-10-07T14:39:44.719Z,3.60
2022-10-07T14:42:20.122Z,4.00
2022-10-07T14:44:50.198Z,4.30
2022-10-07T14:47:21.325Z,3.90
2022-10-07T14:49:53.239Z,3.80
2022-10-07T14:52:28.847Z,4.10
2022-10-07T14:55:00.812Z,4.30
2022-10-07T14:57:29.026Z,4.30
2022-10-07T14:59:58.023Z,4.20
2022-10-07T15:02:27.674Z,4.00
2022-10-07T15:04:56.120Z,4.30
2022-10-07T15:07:25.088Z,4.20
2022-10-07T15:09:53.297Z,4.90
2022-10-07T15:12:21.569Z,4.50
2022-10-07T15:14:50.044Z,4.40
2022-10-07T15:17:18.161Z,4.00
2022-10-07T15:19:46.687Z,4.50
2022-10-07T15:22:15.138Z,5.50
2022-10-07T15:24:43.744Z,4.40
2022-10-07T15:27:11.938Z,4.50
2022-10-07T15:29:40.152Z,5.00
2022-10-07T15:32:08.886Z,5.40
2022-10-07T15:34:37.319Z,5.20
2022-10-07T15:37:06.237Z,5.40
2022-10-07T15:39:39.462Z,5.80
2022-10-07T15:42:09.038Z,6.00
2022-10-07T15:44:37.402Z,5.70
2022-10-07T15:47:06.222Z,5.40
2022-10-07T15:49:36.190Z,6.00
2022-10-07T15:52:04.496Z,6.40
2022-10-07T15:54:32.847Z,6.00
2022-10-07T15:57:01.331Z,6.10
2022-10-07T15:59:29.980Z,5.40
2022-10-07T16:01:58.321Z,7.00
2022-10-07T16:04:26.691Z,6.40
2022-10-07T16:06:54.965Z,5.70
2022-10-07T16:09:24.637Z,6.20
2022-10-07T16:11:54.198Z,5.80
2022-10-07T16:14:22.380Z,6.10
2022-10-07T16:16:50.894Z,5.90
2022-10-07T16:19:19.426Z,6.30
2022-10-07T16:21:47.776Z,6.40
2022-10-07T16:24:18.957Z,6.20
2022-10-07T16:26:50.654Z,6.70
2022-10-07T16:29:40.827Z,6.10
2022-10-07T16:32:11.002Z,5.80
2022-10-07T16:34:43.619Z,5.80
2022-10-07T16:37:12.644Z,5.70
2022-10-07T16:39:41.375Z,6.10
2022-10-07T16:42:09.567Z,6.90
2022-10-07T16:44:37.812Z,6.50
2022-10-07T16:47:06.083Z,6.30
2022-10-07T16:49:36.546Z,6.60
2022-10-07T16:52:06.546Z,6.50
2022-10-07T16:54:36.153Z,6.50
2022-10-07T16:57:06.411Z,6.20
2022-10-07T16:59:34.616Z,6.10
2022-10-07T17:02:05.263Z,6.90
2022-10-07T17:04:33.489Z,6.60
2022-10-07T17:07:02.955Z,7.80
2022-10-07T17:09:31.323Z,7.40
2022-10-07T17:11:59.792Z,7.90
2022-10-07T17:14:31.970Z,7.70
2022-10-07T17:17:00.874Z,7.70
2022-10-07T17:19:29.788Z,7.60
2022-10-07T17:22:01.253Z,7.20
2022-10-07T17:24:30.304Z,7.70
2022-10-07T17:26:58.988Z,7.30
2022-10-07T17:29:29.876Z,8.00
2022-10-07T17:31:58.483Z,7.40
2022-10-07T17:34:26.982Z,8.10
2022-10-07T17:36:55.283Z,7.90
2022-10-07T17:39:23.692Z,7.90
2022-10-07T17:41:52.653Z,7.80
2022-10-07T17:44:21.959Z,7.90
2022-10-07T17:46:51.296Z,7.80
2022-10-07T17:49:19.706Z,8.80
2022-10-07T17:51:49.003Z,8.80
2022-10-07T17:54:18.948Z,9.00
2022-10-07T17:56:48.095Z,8.60
2022-10-07T17:59:17.359Z,8.40
2022-10-07T18:01:45.939Z,8.80
2022-10-07T18:04:22.503Z,8.20
2022-10-07T18:06:53.201Z,7.90
2022-10-07T18:09:24.756Z,7.80
2022-10-07T18:12:13.087Z,8.00
2022-10-07T18:15:00.835Z,8.80
2022-10-07T18:17:30.327Z,9.10
2022-10-07T18:20:00.334Z,8.90
2022-10-07T18:22:29.131Z,9.10
2022-10-07T18:24:59.039Z,9.50
2022-10-07T18:27:28.838Z,7.90
2022-10-07T18:29:57.812Z,8.50
2022-10-07T18:32:26.537Z,9.30
2022-10-07T18:34:55.106Z,9.00
2022-10-07T18:37:23.963Z,10.20
2022-10-07T18:39:52.535Z,9.70
2022-10-07T18:42:20.985Z,9.50
2022-10-07T18:44:50.981Z,10.00
2022-10-07T18:47:19.942Z,8.70
2022-10-07T18:49:48.400Z,9.60
2022-10-07T18:52:17.667Z,9.30
2022-10-07T18:54:46.204Z,8.70
2022-10-07T18:57:14.616Z,9.80
2022-10-07T18:59:42.965Z,8.70
2022-10-07T19:02:14.190Z,9.00
2022-10-07T19:04:42.934Z,9.70
2022-10-07T19:07:12.163Z,8.90
2022-10-07T19:09:40.898Z,8.90
2022-10-07T19:12:30.410Z,9.60
2022-10-07T19:15:00.149Z,9.50
2022-10-07T19:17:29.355Z,9.10
2022-10-07T19:20:01.723Z,8.60
2022-10-07T19:22:30.608Z,8.70
2022-10-07T19:25:17.266Z,9.20
2022-10-07T19:27:46.558Z,8.40
2022-10-07T19:30:15.431Z,9.60
2022-10-07T19:32:45.236Z,8.90
2022-10-07T19:35:13.714Z,9.20
2022-10-07T19:37:43.246Z,9.00
2022-10-07T19:40:12.300Z,8.70
2022-10-07T19:42:41.937Z,8.10
2022-10-07T19:45:10.995Z,8.20
2022-10-07T19:47:39.304Z,9.30
2022-10-07T19:50:07.960Z,8.50
2022-10-07T19:52:37.011Z,8.50
2022-10-07T19:55:05.823Z,9.10
2022-10-07T19:57:34.306Z,9.20
2022-10-07T20:00:03.027Z,7.60
2022-10-07T20:02:40.772Z,8.70
2022-10-07T20:05:09.983Z,8.70
2022-10-07T20:07:38.710Z,8.30
2022-10-07T20:10:08.272Z,8.80
2022-10-07T20:12:38.040Z,8.30
2022-10-07T20:15:07.467Z,8.70
2022-10-07T20:17:35.802Z,8.00
2022-10-07T20:20:05.003Z,7.60
2022-10-07T20:22:34.718Z,7.60
2022-10-07T20:25:05.413Z,7.70
2022-10-07T20:27:34.026Z,6.80
2022-10-07T20:30:06.919Z,7.90
2022-10-07T20:32:35.949Z,7.50
2022-10-07T20:35:10.774Z,7.50
2022-10-07T20:37:39.198Z,7.20
2022-10-07T20:40:26.455Z,7.20
2022-10-07T20:42:55.869Z,7.40
2022-10-07T20:45:24.339Z,8.50
2022-10-07T20:47:55.315Z,8.40
2022-10-07T20:50:23.843Z,8.60
2022-10-07T20:52:53.011Z,8.20
2022-10-07T20:55:23.817Z,9.10
2022-10-07T20:57:52.082Z,7.50
2022-10-07T21:00:20.574Z,8.50
2022-10-07T21:02:50.847Z,8.00
2022-10-07T21:05:19.275Z,7.30
2022-10-07T21:07:51.273Z,8.30
2022-10-07T21:10:24.380Z,8.50
2022-10-07T21:12:52.632Z,8.40
2022-10-07T21:15:21.365Z,8.50
2022-10-07T21:17:49.489Z,7.50
2022-10-07T21:20:17.659Z,7.10
2022-10-07T21:22:46.016Z,8.20
2022-10-07T21:25:14.568Z,7.50
2022-10-07T21:27:42.892Z,7.90
2022-10-07T21:30:12.009Z,7.90
2022-10-07T21:32:40.069Z,8.10
2022-10-07T21:35:08.553Z,8.10
2022-10-07T21:37:36.642Z,7.70
2022-10-07T21:40:05.281Z,7.80
2022-10-07T21:42:33.523Z,7.10
2022-10-07T21:45:01.920Z,7.40
2022-10-07T21:47:30.301Z,7.60
2022-10-07T21:49:58.467Z,8.20
2022-10-07T21:52:26.542Z,7.80
2022-10-07T21:54:55.655Z,8.30
2022-10-07T21:57:23.823Z,8.00
2022-10-07T21:59:52.379Z,7.90
2022-10-07T22:02:20.726Z,8.20
2022-10-07T22:04:48.904Z,7.40
2022-10-07T22:07:35.290Z,7.40
2022-10-07T22:10:03.918Z,7.60
2022-10-07T22:12:32.137Z,8.00
2022-10-07T22:15:00.727Z,8.00
2022-10-07T22:17:28.826Z,8.40
2022-10-07T22:19:57.145Z,7.90
2022-10-07T22:22:25.499Z,7.60
2022-10-07T22:24:53.525Z,7.60
2022-10-07T22:27:22.319Z,7.70
2022-10-07T22:29:50.329Z,7.10
2022-10-07T22:32:18.467Z,7.70
2022-10-07T22:35:05.145Z,8.30
2022-10-07T22:37:33.240Z,8.30
2022-10-07T22:40:01.332Z,8.30
2022-10-07T22:42:29.535Z,7.70
2022-10-07T22:44:57.662Z,7.70
2022-10-07T22:47:25.754Z,6.70
2022-10-07T22:49:55.357Z,7.40
2022-10-07T22:52:23.344Z,7.60
2022-10-07T22:54:52.657Z,6.90
2022-10-07T22:57:20.710Z,7.30
2022-10-07T22:59:48.822Z,7.90
2022-10-07T23:02:16.805Z,7.40
2022-10-07T23:04:44.951Z,6.90
2022-10-07T23:07:12.996Z,7.30
2022-10-07T23:09:41.297Z,6.60
2022-10-07T23:12:09.601Z,7.40
2022-10-07T23:14:37.716Z,7.50
2022-10-07T23:17:05.844Z,8.10
2022-10-07T23:19:34.053Z,8.00
2022-10-07T23:22:02.443Z,8.70
2022-10-07T23:24:30.600Z,8.90
2022-10-07T23:26:58.600Z,8.00
2022-10-07T23:29:26.752Z,9.10
2022-10-07T23:31:54.906Z,9.30
2022-10-07T23:34:22.939Z,8.60
2022-10-07T23:36:52.983Z,8.30
2022-10-07T23:39:22.367Z,8.50
2022-10-07T23:41:50.377Z,8.90
2022-10-07T23:44:18.495Z,9.40
2022-10-07T23:46:47.371Z,8.30
2022-10-07T23:49:15.565Z,8.90
2022-10-07T23:51:43.553Z,8.30
2022-10-07T23:54:11.533Z,9.00
2022-10-07T23:56:39.632Z,8.60
2022-10-07T23:59:08.046Z,8.00
